Time;durP1;ratioP1;P1;durP2;ratioP2;P2;SDS_P1;SDS_P2;PMS_P1;PMS_P2;Temp;Humidity;BMP_temperature;BMP_pressure;BME280_temperature;BME280_humidity;BME280_pressure;Samples;Min_cycle;Max_cycle;Signal;HPM_P1;HPM_P2
2022/08/16 00:00:53;;;;;;;11.98;10.15;;;19.70;85.60;;;;;;5059434;28;20119;-46
2022/08/16 00:03:19;;;;;;;13.70;10.93;;;19.70;85.70;;;;;;5035034;28;20044;-46
2022/08/16 00:05:45;;;;;;;13.10;10.77;;;19.60;85.80;;;;;;5067593;28;20051;-46
2022/08/16 00:08:11;;;;;;;11.68;10.48;;;19.60;85.90;;;;;;5036190;28;20462;-47
2022/08/16 00:11:09;;;;;;;12.05;10.68;;;19.60;86.20;;;;;;5048996;28;20037;-46
2022/08/16 00:13:35;;;;;;;11.25;10.15;;;19.50;86.40;;;;;;5067273;28;20116;-46
2022/08/16 00:16:01;;;;;;;12.63;11.18;;;19.40;86.60;;;;;;5049098;28;20028;-46
2022/08/16 00:18:27;;;;;;;14.02;10.85;;;19.40;86.70;;;;;;5054333;28;20050;-50
2022/08/16 00:20:53;;;;;;;13.52;11.35;;;19.40;86.70;;;;;;5061458;28;20037;-46
2022/08/16 00:23:19;;;;;;;12.30;11.00;;;19.40;86.70;;;;;;5065227;28;20128;-46
2022/08/16 00:25:45;;;;;;;13.32;10.23;;;19.40;86.90;;;;;;5064808;28;20094;-46
2022/08/16 00:28:11;;;;;;;17.27;11.68;;;19.40;86.80;;;;;;5048861;28;20458;-47
2022/08/16 00:30:37;;;;;;;12.75;11.50;;;19.30;86.80;;;;;;5033176;28;20084;-49
2022/08/16 00:33:06;;;;;;;13.18;11.88;;;19.30;86.80;;;;;;5051768;28;20025;-46
2022/08/16 00:35:35;;;;;;;15.30;12.25;;;19.30;86.90;;;;;;5052636;28;20028;-47
2022/08/16 00:38:02;;;;;;;17.10;11.90;;;19.20;87.00;;;;;;5069952;28;20065;-46
2022/08/16 00:40:38;;;;;;;14.82;13.32;;;19.20;87.20;;;;;;5069863;28;20031;-46
2022/08/16 00:43:14;;;;;;;16.25;13.70;;;19.20;87.30;;;;;;5072962;28;20060;-46
2022/08/16 00:46:14;;;;;;;14.05;12.65;;;19.10;87.30;;;;;;5069072;28;20048;-45
2022/08/16 00:48:42;;;;;;;15.60;14.20;;;19.10;87.50;;;;;;5066370;28;20067;-46
2022/08/16 00:51:07;;;;;;;16.15;13.45;;;19.10;87.40;;;;;;5062145;28;20047;-47
2022/08/16 00:53:34;;;;;;;14.80;13.30;;;19.10;87.60;;;;;;5066846;28;20029;-46
2022/08/16 00:56:07;;;;;;;16.48;14.88;;;19.10;87.50;;;;;;5070259;28;20035;-47
2022/08/16 00:58:35;;;;;;;16.77;14.82;;;19.10;87.50;;;;;;5073705;28;20029;-45
2022/08/16 01:01:02;;;;;;;17.90;14.88;;;19.00;87.70;;;;;;5070060;28;20024;-46
2022/08/16 01:03:31;;;;;;;17.83;15.82;;;19.00;87.70;;;;;;5055812;28;20032;-46
2022/08/16 01:05:57;;;;;;;17.75;15.38;;;19.00;87.70;;;;;;5057305;28;20107;-46
2022/08/16 01:08:23;;;;;;;18.67;15.18;;;18.90;87.90;;;;;;5070709;28;20107;-45
2022/08/16 01:10:50;;;;;;;18.13;15.15;;;18.90;87.80;;;;;;5049953;28;20112;-46
2022/08/16 01:13:23;;;;;;;18.65;16.67;;;18.90;87.70;;;;;;5046766;28;20040;-46
2022/08/16 01:16:05;;;;;;;18.85;17.00;;;18.90;87.60;;;;;;5064592;28;20020;-46
2022/08/16 01:18:39;;;;;;;19.08;17.15;;;18.90;87.80;;;;;;5067982;28;20057;-44
2022/08/16 01:21:29;;;;;;;16.63;14.98;;;18.90;87.70;;;;;;5071309;28;20048;-45
2022/08/16 01:24:18;;;;;;;17.02;15.23;;;18.90;87.80;;;;;;5070182;28;20031;-45
2022/08/16 01:26:49;;;;;;;17.50;15.70;;;18.90;87.80;;;;;;5070480;28;20461;-48
2022/08/16 01:29:22;;;;;;;18.48;16.67;;;18.80;87.90;;;;;;5047880;28;20072;-46
2022/08/16 01:31:51;;;;;;;18.55;16.08;;;18.80;87.80;;;;;;5065580;28;20353;-46
2022/08/16 01:34:17;;;;;;;17.83;16.02;;;18.70;87.90;;;;;;5068389;28;20046;-46
2022/08/16 01:36:44;;;;;;;18.20;16.35;;;18.70;88.00;;;;;;5052744;28;20393;-45
2022/08/16 01:39:13;;;;;;;18.13;16.35;;;18.70;88.00;;;;;;5070332;28;20028;-46
2022/08/16 01:41:40;;;;;;;18.55;16.80;;;18.70;88.10;;;;;;5053170;28;20477;-45
2022/08/16 01:44:09;;;;;;;19.77;17.13;;;18.70;88.00;;;;;;5064741;28;20065;-44
2022/08/16 01:46:42;;;;;;;18.10;16.30;;;18.60;88.10;;;;;;5062872;28;20024;-45
2022/08/16 01:49:15;;;;;;;22.25;17.58;;;18.60;88.20;;;;;;5063936;28;20025;-44
2022/08/16 01:51:43;;;;;;;22.45;18.40;;;18.60;88.10;;;;;;5066827;28;20040;-46
2022/08/16 01:54:09;;;;;;;21.23;19.17;;;18.70;88.20;;;;;;5040811;28;20055;-49
2022/08/16 01:56:35;;;;;;;20.05;18.15;;;18.60;88.20;;;;;;5069852;28;20438;-44
2022/08/16 01:59:05;;;;;;;20.13;18.15;;;18.60;88.20;;;;;;5067276;28;20058;-44
2022/08/16 02:01:33;;;;;;;20.83;18.58;;;18.60;88.20;;;;;;5044625;28;20043;-45
2022/08/16 02:03:59;;;;;;;20.58;18.55;;;18.60;88.30;;;;;;5059015;28;20020;-45
2022/08/16 02:06:26;;;;;;;22.00;19.90;;;18.60;88.40;;;;;;5048567;28;20039;-44
2022/08/16 02:08:53;;;;;;;21.55;19.55;;;18.60;88.50;;;;;;5065656;28;20036;-44
2022/08/16 02:11:21;;;;;;;22.00;19.90;;;18.60;88.50;;;;;;5051255;28;20584;-45
2022/08/16 02:13:47;;;;;;;22.95;20.67;;;18.60;88.50;;;;;;5066046;28;20450;-45
2022/08/16 02:16:12;;;;;;;21.42;19.35;;;18.50;88.60;;;;;;5058569;28;20036;-47
2022/08/16 02:18:39;;;;;;;25.05;22.42;;;18.50;88.60;;;;;;5036013;28;20466;-45
2022/08/16 02:21:09;;;;;;;21.05;18.95;;;18.50;88.60;;;;;;5065658;28;20099;-43
2022/08/16 02:23:36;;;;;;;21.45;19.50;;;18.50;88.70;;;;;;5066475;28;20426;-44
2022/08/16 02:26:03;;;;;;;22.77;20.70;;;18.50;88.70;;;;;;5050871;28;20108;-47
2022/08/16 02:28:29;;;;;;;22.55;20.20;;;18.50;88.70;;;;;;5050751;28;20035;-44
2022/08/16 02:31:01;;;;;;;24.52;22.05;;;18.50;88.70;;;;;;5032765;28;20024;-45
2022/08/16 02:33:27;;;;;;;21.92;19.83;;;18.50;88.80;;;;;;5042665;28;20082;-44
2022/08/16 02:35:53;;;;;;;27.45;20.52;;;18.50;88.90;;;;;;5042387;28;20032;-44
2022/08/16 02:38:18;;;;;;;23.55;21.23;;;18.40;88.80;;;;;;5051877;28;20357;-44
2022/08/16 02:40:44;;;;;;;22.33;20.00;;;18.50;88.80;;;;;;5046446;28;20024;-45
2022/08/16 02:43:10;;;;;;;24.90;22.60;;;18.50;88.90;;;;;;5050926;28;20086;-45
2022/08/16 02:45:36;;;;;;;22.15;20.13;;;18.50;89.00;;;;;;5059336;28;20047;-44
2022/08/16 02:48:01;;;;;;;23.25;21.02;;;18.60;89.00;;;;;;5069768;28;20039;-45
2022/08/16 02:50:27;;;;;;;23.92;21.58;;;18.60;89.00;;;;;;5049938;28;20063;-45
2022/08/16 02:52:53;;;;;;;24.50;22.00;;;18.60;89.00;;;;;;5065340;28;20045;-46
2022/08/16 02:55:20;;;;;;;23.48;21.30;;;18.60;89.10;;;;;;5067789;28;20495;-45
2022/08/16 02:57:46;;;;;;;21.40;19.50;;;18.70;89.10;;;;;;5052746;28;20053;-47
2022/08/16 03:00:14;;;;;;;23.00;20.67;;;18.70;89.00;;;;;;5031782;28;20377;-44
2022/08/16 03:02:41;;;;;;;23.83;21.70;;;18.70;88.90;;;;;;5064904;28;20343;-47
2022/08/16 03:05:12;;;;;;;24.27;21.73;;;18.70;89.00;;;;;;5054253;28;20346;-47
2022/08/16 03:07:38;;;;;;;23.52;21.42;;;18.70;89.00;;;;;;5053854;28;20037;-47
2022/08/16 03:10:07;;;;;;;27.13;24.38;;;18.70;89.00;;;;;;5066763;28;20115;-43
2022/08/16 03:12:33;;;;;;;26.55;23.80;;;18.70;89.00;;;;;;5067811;28;20033;-45
2022/08/16 03:14:58;;;;;;;24.83;22.63;;;18.70;89.00;;;;;;5068915;28;20028;-44
2022/08/16 03:17:26;;;;;;;25.40;21.50;;;18.70;89.00;;;;;;5041585;28;20056;-45
2022/08/16 03:19:52;;;;;;;24.33;21.85;;;18.70;89.00;;;;;;5062251;28;20040;-45
2022/08/16 03:22:20;;;;;;;24.50;22.20;;;18.70;89.00;;;;;;5052309;28;20036;-45
2022/08/16 03:24:45;;;;;;;30.58;21.90;;;18.70;89.00;;;;;;5049347;28;20176;-46
2022/08/16 03:27:11;;;;;;;22.38;19.75;;;18.70;88.80;;;;;;5059307;28;20107;-47
2022/08/16 03:29:39;;;;;;;24.92;22.50;;;18.70;88.90;;;;;;5067535;28;20036;-45
2022/08/16 03:32:05;;;;;;;24.23;21.88;;;18.70;88.90;;;;;;5050283;28;20049;-45
2022/08/16 03:34:34;;;;;;;23.67;21.15;;;18.70;88.80;;;;;;5064951;28;20035;-45
2022/08/16 03:37:00;;;;;;;25.75;23.23;;;18.70;88.70;;;;;;5048860;28;20028;-44
2022/08/16 03:39:27;;;;;;;24.45;22.02;;;18.70;88.80;;;;;;5049289;28;20051;-44
2022/08/16 03:41:53;;;;;;;24.88;22.38;;;18.70;88.80;;;;;;5032653;28;20374;-45
2022/08/16 03:44:19;;;;;;;23.88;21.38;;;18.60;88.80;;;;;;5048765;28;20049;-45
2022/08/16 03:46:45;;;;;;;22.50;20.30;;;18.60;88.70;;;;;;5061608;28;20142;-44
2022/08/16 03:49:11;;;;;;;22.15;20.00;;;18.60;88.70;;;;;;5045535;28;20640;-47
2022/08/16 03:51:38;;;;;;;22.33;19.75;;;18.60;88.70;;;;;;5046771;28;20028;-45
2022/08/16 03:54:04;;;;;;;22.95;20.67;;;18.60;88.60;;;;;;5051666;28;20078;-47
2022/08/16 03:56:30;;;;;;;26.02;23.67;;;18.60;88.70;;;;;;5031816;28;20442;-45
2022/08/16 03:58:56;;;;;;;25.45;22.75;;;18.60;88.80;;;;;;5033410;28;20826;-46
2022/08/16 04:01:23;;;;;;;24.40;22.17;;;18.50;88.80;;;;;;5065154;28;20043;-45
2022/08/16 04:03:50;;;;;;;22.27;20.02;;;18.50;88.70;;;;;;5048752;28;20016;-45
2022/08/16 04:06:21;;;;;;;22.08;19.73;;;18.40;88.80;;;;;;5049965;28;20085;-44
2022/08/16 04:08:51;;;;;;;21.85;19.60;;;18.50;88.80;;;;;;5056732;28;20033;-44
2022/08/16 04:11:17;;;;;;;23.42;21.02;;;18.50;88.80;;;;;;5057228;28;20054;-45
2022/08/16 04:13:44;;;;;;;22.85;20.60;;;18.40;88.80;;;;;;5061917;28;20025;-44
2022/08/16 04:16:11;;;;;;;25.33;22.38;;;18.40;88.80;;;;;;5048266;28;20039;-49
2022/08/16 04:18:37;;;;;;;22.60;20.50;;;18.40;88.90;;;;;;5059821;28;20031;-45
2022/08/16 04:21:04;;;;;;;22.88;20.67;;;18.40;88.90;;;;;;5066004;28;20026;-45
2022/08/16 04:23:32;;;;;;;24.45;22.02;;;18.40;88.80;;;;;;5037425;28;20462;-45
2022/08/16 04:25:57;;;;;;;24.50;21.95;;;18.40;89.00;;;;;;5057445;28;20033;-45
2022/08/16 04:28:23;;;;;;;26.77;23.13;;;18.40;89.00;;;;;;5056666;28;20024;-47
2022/08/16 04:30:49;;;;;;;21.15;19.13;;;18.40;89.10;;;;;;5057869;28;20048;-45
2022/08/16 04:33:14;;;;;;;22.63;20.30;;;18.40;89.00;;;;;;5056209;28;20356;-45
2022/08/16 04:35:40;;;;;;;24.38;21.85;;;18.40;89.10;;;;;;5057419;28;20025;-45
2022/08/16 04:38:06;;;;;;;23.70;21.20;;;18.40;89.10;;;;;;5060015;28;20032;-46
2022/08/16 04:40:31;;;;;;;22.48;19.88;;;18.40;89.00;;;;;;5065900;28;20024;-47
2022/08/16 04:43:00;;;;;;;25.85;23.05;;;18.40;89.00;;;;;;5068221;28;20599;-48
2022/08/16 04:45:29;;;;;;;23.87;21.60;;;18.40;89.00;;;;;;5037880;28;20564;-45
2022/08/16 04:47:55;;;;;;;26.05;23.50;;;18.40;89.10;;;;;;5034380;28;20365;-45
2022/08/16 04:50:25;;;;;;;32.70;23.88;;;18.40;89.10;;;;;;5051450;28;20528;-45
2022/08/16 04:52:52;;;;;;;;;;;18.40;89.40;;;;;;5048228;28;20480;-46
2022/08/16 04:55:21;;;;;;;25.13;22.48;;;18.40;89.20;;;;;;5059021;28;19909;-45
2022/08/16 04:57:49;;;;;;;24.67;22.20;;;18.40;89.20;;;;;;5034425;28;20075;-45
2022/08/16 05:00:19;;;;;;;27.27;24.73;;;18.40;89.20;;;;;;5078180;28;20028;-44
2022/08/16 05:02:48;;;;;;;24.80;22.23;;;18.50;89.30;;;;;;5059960;28;20466;-45
2022/08/16 05:05:13;;;;;;;26.45;23.77;;;18.50;89.20;;;;;;5066869;28;20056;-46
2022/08/16 05:07:39;;;;;;;27.55;24.77;;;18.50;89.30;;;;;;5050881;28;20032;-45
2022/08/16 05:10:07;;;;;;;25.85;23.38;;;18.50;89.20;;;;;;5040284;28;20048;-45
2022/08/16 05:12:35;;;;;;;25.98;23.35;;;18.50;89.20;;;;;;5036509;28;20377;-46
2022/08/16 05:15:04;;;;;;;25.95;23.45;;;18.50;89.40;;;;;;5055827;28;20434;-45
2022/08/16 05:17:33;;;;;;;28.53;25.83;;;18.50;89.30;;;;;;5061407;28;20362;-45
2022/08/16 05:19:58;;;;;;;24.92;22.52;;;18.60;89.40;;;;;;5057075;28;20664;-48
2022/08/16 05:22:26;;;;;;;27.75;24.95;;;18.60;89.40;;;;;;5057013;28;20041;-46
2022/08/16 05:24:52;;;;;;;27.42;24.83;;;18.60;89.30;;;;;;5068283;28;20354;-45
2022/08/16 05:27:20;;;;;;;24.88;22.67;;;18.60;89.30;;;;;;5055401;28;20109;-46
2022/08/16 05:29:46;;;;;;;27.27;24.38;;;18.70;89.50;;;;;;5046581;28;20469;-46
2022/08/16 05:32:13;;;;;;;27.38;24.77;;;18.70;89.40;;;;;;5051890;28;20082;-45
2022/08/16 05:34:40;;;;;;;29.00;26.10;;;18.70;89.40;;;;;;5043490;28;20434;-45
2022/08/16 05:37:06;;;;;;;27.13;24.63;;;18.80;89.40;;;;;;5051459;28;20025;-45
2022/08/16 05:39:36;;;;;;;28.90;26.08;;;18.90;89.40;;;;;;5051519;28;20438;-45
2022/08/16 05:42:03;;;;;;;28.08;25.23;;;18.90;89.30;;;;;;5038498;28;20317;-45
2022/08/16 05:44:32;;;;;;;26.10;23.60;;;18.90;89.30;;;;;;5070124;28;20052;-45
2022/08/16 05:47:00;;;;;;;27.15;24.33;;;19.00;89.10;;;;;;5068340;28;20056;-45
2022/08/16 05:49:29;;;;;;;29.17;26.30;;;19.10;89.00;;;;;;5053862;28;20087;-45
2022/08/16 05:51:58;;;;;;;28.25;25.58;;;19.10;89.00;;;;;;5026418;28;20182;-45
2022/08/16 05:54:27;;;;;;;29.33;26.70;;;19.20;89.00;;;;;;5037475;28;20037;-45
2022/08/16 05:56:55;;;;;;;26.20;23.63;;;19.40;88.90;;;;;;5059900;28;20025;-45
2022/08/16 05:59:24;;;;;;;26.73;23.92;;;19.40;88.70;;;;;;5055961;28;20032;-46
2022/08/16 06:01:50;;;;;;;26.80;24.30;;;19.50;88.40;;;;;;5063122;28;20035;-45
2022/08/16 06:04:18;;;;;;;27.63;25.05;;;19.70;88.30;;;;;;5067339;28;20034;-47
2022/08/16 06:06:47;;;;;;;28.05;25.15;;;19.70;88.00;;;;;;5053033;28;20039;-46
2022/08/16 06:09:14;;;;;;;27.13;24.60;;;19.80;87.60;;;;;;5067302;28;20369;-49
2022/08/16 06:11:40;;;;;;;26.58;23.98;;;19.80;87.70;;;;;;5083785;28;20028;-45
2022/08/16 06:14:06;;;;;;;26.95;24.25;;;19.90;87.50;;;;;;5068884;28;20079;-46
2022/08/16 06:16:32;;;;;;;28.23;25.27;;;19.90;87.50;;;;;;5050708;28;20072;-45
2022/08/16 06:18:58;;;;;;;25.88;23.30;;;19.90;87.40;;;;;;5050337;28;20460;-46
2022/08/16 06:21:23;;;;;;;25.67;23.20;;;20.00;87.40;;;;;;5060305;28;20411;-46
2022/08/16 06:23:49;;;;;;;22.00;19.80;;;20.00;87.40;;;;;;5065668;28;20044;-47
2022/08/16 06:26:15;;;;;;;24.08;21.58;;;20.10;87.50;;;;;;5050657;28;20021;-46
2022/08/16 06:28:41;;;;;;;27.92;25.20;;;20.10;87.40;;;;;;5054444;28;20355;-47
2022/08/16 06:31:10;;;;;;;27.45;24.75;;;20.20;87.30;;;;;;5055985;28;20051;-46
2022/08/16 06:33:35;;;;;;;28.83;26.20;;;20.20;87.10;;;;;;5038773;28;20051;-46
2022/08/16 06:36:01;;;;;;;27.13;24.27;;;20.30;87.20;;;;;;5064453;28;20036;-46
2022/08/16 06:38:28;;;;;;;30.40;27.38;;;20.40;87.20;;;;;;5069018;28;20029;-48
2022/08/16 06:40:56;;;;;;;27.60;24.83;;;20.40;87.30;;;;;;5050823;28;20489;-46
2022/08/16 06:43:22;;;;;;;26.10;23.70;;;20.40;87.20;;;;;;5043854;28;20043;-50
2022/08/16 06:45:47;;;;;;;26.13;23.40;;;20.40;87.00;;;;;;5042273;28;20037;-46
2022/08/16 06:48:13;;;;;;;22.08;19.95;;;20.50;87.10;;;;;;5077894;28;20020;-47
2022/08/16 06:50:40;;;;;;;26.58;23.80;;;20.50;87.10;;;;;;5067358;28;20024;-47
2022/08/16 06:53:08;;;;;;;24.83;22.45;;;20.60;87.00;;;;;;5064199;28;20029;-48
2022/08/16 06:55:35;;;;;;;28.63;26.02;;;20.60;86.90;;;;;;5062437;28;20052;-47
2022/08/16 06:58:01;;;;;;;27.40;24.88;;;20.70;86.70;;;;;;5061933;28;20112;-46
2022/08/16 07:00:27;;;;;;;26.25;23.67;;;20.70;86.60;;;;;;5056026;28;20111;-48
2022/08/16 07:02:53;;;;;;;26.27;23.90;;;20.70;86.40;;;;;;5068664;28;20107;-48
2022/08/16 07:05:20;;;;;;;26.88;24.52;;;20.80;86.50;;;;;;5050020;28;20116;-50
2022/08/16 07:07:47;;;;;;;30.73;27.85;;;20.90;86.30;;;;;;5058790;28;20563;-51
2022/08/16 07:10:15;;;;;;;27.42;24.90;;;20.80;86.00;;;;;;5066935;28;20032;-48
2022/08/16 07:12:40;;;;;;;26.83;24.13;;;20.90;86.10;;;;;;5066780;28;20467;-51
2022/08/16 07:15:07;;;;;;;26.42;24.15;;;20.80;86.10;;;;;;5062356;28;20064;-49
2022/08/16 07:17:32;;;;;;;26.77;24.17;;;20.90;86.20;;;;;;5067222;28;20417;-47
2022/08/16 07:20:02;;;;;;;24.98;22.77;;;20.90;86.20;;;;;;5036548;28;20078;-47
2022/08/16 07:22:28;;;;;;;;;;;21.10;86.10;;;;;;5067456;28;20047;-49
2022/08/16 07:24:54;;;;;;;29.17;26.48;;;21.00;86.20;;;;;;5050015;28;19908;-48
2022/08/16 07:27:20;;;;;;;27.20;24.85;;;21.10;85.80;;;;;;5049565;28;20032;-48
2022/08/16 07:29:46;;;;;;;27.70;25.08;;;21.10;85.80;;;;;;5042541;28;20036;-47
2022/08/16 07:32:12;;;;;;;27.67;25.25;;;21.20;85.80;;;;;;5064091;28;20037;-48
2022/08/16 07:34:37;;;;;;;30.05;26.67;;;21.40;85.80;;;;;;5056540;28;20025;-47
2022/08/16 07:37:07;;;;;;;24.70;22.50;;;21.40;85.20;;;;;;5063043;28;20082;-50
2022/08/16 07:39:32;;;;;;;25.35;22.92;;;21.50;85.50;;;;;;5042081;28;20029;-51
2022/08/16 07:41:58;;;;;;;26.63;24.17;;;21.60;85.10;;;;;;5066460;28;20046;-51
2022/08/16 07:44:24;;;;;;;27.60;25.20;;;21.60;84.80;;;;;;5065621;28;20468;-49
2022/08/16 07:46:49;;;;;;;28.23;25.75;;;21.70;84.80;;;;;;5062328;28;20045;-50
2022/08/16 07:49:15;;;;;;;23.33;21.23;;;21.80;84.40;;;;;;5045588;28;20430;-49
2022/08/16 07:51:41;;;;;;;22.20;19.70;;;21.90;84.20;;;;;;5066779;28;20032;-47
2022/08/16 07:54:08;;;;;;;26.50;24.23;;;22.00;83.90;;;;;;5065551;28;20043;-51
2022/08/16 07:56:34;;;;;;;24.10;21.90;;;22.10;83.40;;;;;;5049225;28;20029;-48
2022/08/16 07:59:02;;;;;;;23.45;21.45;;;22.30;83.50;;;;;;5046384;28;20028;-48
2022/08/16 08:01:31;;;;;;;24.67;22.27;;;22.50;83.10;;;;;;5050668;28;20535;-49
2022/08/16 08:03:57;;;;;;;22.47;20.40;;;23.00;82.40;;;;;;5049086;28;20031;-49
2022/08/16 08:06:27;;;;;;;20.67;18.88;;;23.40;79.40;;;;;;5066976;28;20426;-47
2022/08/16 08:08:55;;;;;;;18.50;16.75;;;24.00;77.40;;;;;;5061664;28;20021;-49
2022/08/16 08:11:22;;;;;;;16.50;14.77;;;24.60;76.40;;;;;;5059153;28;20342;-48
2022/08/16 08:13:50;;;;;;;15.90;14.18;;;25.30;74.90;;;;;;5039322;28;20144;-49
2022/08/16 08:16:15;;;;;;;14.60;13.30;;;25.60;70.20;;;;;;5059576;28;20032;-50
2022/08/16 08:18:42;;;;;;;14.63;13.30;;;25.40;69.20;;;;;;5063721;28;20025;-49
2022/08/16 08:21:08;;;;;;;15.10;13.02;;;25.50;69.60;;;;;;5054001;28;20020;-50
2022/08/16 08:23:37;;;;;;;13.98;12.77;;;25.80;70.30;;;;;;5065419;28;20664;-53
2022/08/16 08:26:03;;;;;;;13.93;12.48;;;25.80;69.10;;;;;;5061868;28;20408;-52
2022/08/16 08:28:30;;;;;;;13.05;11.65;;;25.80;69.70;;;;;;5064375;28;20036;-51
2022/08/16 08:30:57;;;;;;;13.75;12.55;;;25.70;69.40;;;;;;5053097;28;20098;-50
2022/08/16 08:33:23;;;;;;;11.88;10.60;;;25.40;68.70;;;;;;5066621;28;20039;-51
2022/08/16 08:35:48;;;;;;;10.80;9.70;;;25.60;68.30;;;;;;5033424;28;20025;-49
2022/08/16 08:38:15;;;;;;;11.65;10.10;;;25.90;67.40;;;;;;5050308;28;20102;-50
2022/08/16 08:40:42;;;;;;;10.52;9.55;;;26.10;65.90;;;;;;5064545;28;20017;-51
2022/08/16 08:43:10;;;;;;;12.57;11.05;;;26.30;65.40;;;;;;5067001;28;20037;-48
2022/08/16 08:45:36;;;;;;;12.55;11.13;;;26.60;63.00;;;;;;5056213;28;20119;-49
2022/08/16 08:48:02;;;;;;;12.13;9.80;;;26.80;64.40;;;;;;5069191;28;20067;-49
2022/08/16 08:50:28;;;;;;;11.13;9.60;;;27.10;63.40;;;;;;5067485;28;20029;-53
2022/08/16 08:52:54;;;;;;;12.18;10.95;;;27.10;62.70;;;;;;5066274;28;20039;-53
2022/08/16 08:55:21;;;;;;;13.07;10.30;;;27.30;60.70;;;;;;5063572;28;20060;-55
2022/08/16 08:57:51;;;;;;;11.48;10.23;;;27.30;61.70;;;;;;5070221;28;20085;-50
2022/08/16 09:00:19;;;;;;;10.77;8.63;;;27.40;60.80;;;;;;5068985;28;20468;-52
2022/08/16 09:02:45;;;;;;;9.53;7.73;;;27.50;62.00;;;;;;5056535;28;20023;-51
2022/08/16 09:05:14;;;;;;;9.10;8.23;;;27.60;59.40;;;;;;5061990;28;20429;-53
2022/08/16 09:07:39;;;;;;;10.35;8.20;;;27.80;60.00;;;;;;5063666;28;20075;-51
2022/08/16 09:10:07;;;;;;;9.02;8.15;;;27.90;59.50;;;;;;5060539;28;20025;-49
2022/08/16 09:12:34;;;;;;;9.95;7.10;;;28.00;59.80;;;;;;5067075;28;20031;-50
2022/08/16 09:15:00;;;;;;;8.70;7.88;;;28.30;60.00;;;;;;5071354;28;20478;-53
2022/08/16 09:17:26;;;;;;;10.75;7.75;;;28.20;59.50;;;;;;5071725;28;20028;-48
2022/08/16 09:19:54;;;;;;;9.80;6.93;;;28.40;57.60;;;;;;5054214;28;20441;-49
2022/08/16 09:22:23;;;;;;;10.40;8.48;;;28.20;57.10;;;;;;5071542;28;20086;-48
2022/08/16 09:24:49;;;;;;;8.70;7.35;;;28.00;56.80;;;;;;5070957;28;20673;-50
2022/08/16 09:27:15;;;;;;;9.02;7.50;;;28.00;56.80;;;;;;5071510;28;20111;-55
2022/08/16 09:29:44;;;;;;;8.75;6.30;;;28.10;56.20;;;;;;5056764;28;20039;-53
2022/08/16 09:32:10;;;;;;;7.38;6.38;;;28.10;57.10;;;;;;5065387;28;20446;-49
2022/08/16 09:34:36;;;;;;;9.98;7.53;;;28.10;58.00;;;;;;5061712;28;20044;-48
2022/08/16 09:37:02;;;;;;;9.10;6.85;;;28.10;57.90;;;;;;5071132;28;20033;-49
2022/08/16 09:39:28;;;;;;;7.25;6.55;;;28.10;57.10;;;;;;5059555;28;20067;-48
2022/08/16 09:41:58;;;;;;;8.48;7.43;;;28.30;57.60;;;;;;5040408;28;20025;-53
2022/08/16 09:44:26;;;;;;;10.05;7.07;;;28.40;56.50;;;;;;5068318;28;20495;-49
2022/08/16 09:46:53;;;;;;;10.18;6.78;;;28.40;58.00;;;;;;5064528;28;20036;-48
2022/08/16 09:49:19;;;;;;;9.80;8.77;;;28.90;59.20;;;;;;5065713;28;20017;-49
2022/08/16 09:51:46;;;;;;;9.13;8.23;;;28.80;57.10;;;;;;5057052;28;20434;-48
2022/08/16 09:54:13;;;;;;;10.80;8.23;;;28.80;56.90;;;;;;5063117;28;20108;-48
2022/08/16 09:56:40;;;;;;;10.07;7.93;;;28.60;56.90;;;;;;5065176;28;20028;-49
2022/08/16 09:59:07;;;;;;;15.40;8.55;;;28.50;58.50;;;;;;5075682;28;20338;-47
2022/08/16 10:01:35;;;;;;;9.82;8.18;;;28.30;56.50;;;;;;5070607;28;20032;-48
2022/08/16 10:04:01;;;;;;;8.27;7.45;;;28.30;57.30;;;;;;5062936;28;20023;-48
2022/08/16 10:06:27;;;;;;;10.45;6.40;;;28.40;58.40;;;;;;5058645;28;20327;-50
2022/08/16 10:08:53;;;;;;;6.90;5.38;;;28.30;57.10;;;;;;5064068;28;20036;-48
2022/08/16 10:14:08;;;;;;;;;;;28.50;55.60;;;;;;5022416;28;20052;-49
2022/08/16 10:16:34;;;;;;;11.23;7.80;;;28.80;55.30;;;;;;5064772;28;19912;-48
2022/08/16 10:19:02;;;;;;;9.15;7.13;;;28.80;57.00;;;;;;5059987;28;20025;-48
2022/08/16 10:21:30;;;;;;;8.20;7.50;;;28.90;57.50;;;;;;5065242;28;20029;-48
2022/08/16 10:23:58;;;;;;;;;;;28.90;56.80;;;;;;5070391;28;20020;-49
2022/08/16 10:26:25;;;;;;;8.20;6.07;;;28.90;56.60;;;;;;5067248;28;19920;-49
2022/08/16 10:28:52;;;;;;;8.07;6.50;;;29.00;56.20;;;;;;5064717;28;20108;-47
2022/08/16 10:31:19;;;;;;;7.60;5.78;;;29.10;55.60;;;;;;5056371;28;20354;-48
2022/08/16 10:33:47;;;;;;;6.97;5.13;;;29.00;53.00;;;;;;5058660;28;20378;-48
2022/08/16 10:36:17;;;;;;;8.02;6.28;;;29.10;54.00;;;;;;5063272;28;20107;-48
2022/08/16 10:38:44;;;;;;;6.60;4.97;;;28.90;54.30;;;;;;5069174;28;20464;-48
2022/08/16 10:41:12;;;;;;;7.10;4.75;;;29.00;53.90;;;;;;5049132;28;20037;-49
2022/08/16 10:43:41;;;;;;;8.90;5.03;;;29.30;54.10;;;;;;5066976;28;20032;-48
2022/08/16 10:46:12;;;;;;;5.90;5.22;;;29.50;53.30;;;;;;5064327;28;20063;-48
2022/08/16 10:48:42;;;;;;;5.88;5.07;;;29.30;52.50;;;;;;5067167;28;20402;-47
2022/08/16 10:51:09;;;;;;;5.78;5.18;;;29.10;52.40;;;;;;5033262;28;20461;-47
2022/08/16 10:53:37;;;;;;;7.47;5.43;;;28.90;51.30;;;;;;5067407;28;20040;-47
2022/08/16 10:56:07;;;;;;;7.07;5.05;;;29.00;51.60;;;;;;5065461;28;20017;-50
2022/08/16 10:58:34;;;;;;;6.38;5.55;;;29.10;53.60;;;;;;5049103;28;20039;-51
2022/08/16 11:01:01;;;;;;;6.60;5.45;;;29.30;52.50;;;;;;5061522;28;20411;-47
2022/08/16 11:03:39;;;;;;;6.50;5.70;;;29.00;51.40;;;;;;5069248;28;20024;-49
2022/08/16 11:06:08;;;;;;;6.38;5.47;;;29.00;52.60;;;;;;5064805;28;20378;-48
2022/08/16 11:08:35;;;;;;;9.18;6.65;;;29.20;52.40;;;;;;5066985;28;20116;-47
2022/08/16 11:11:05;;;;;;;10.15;5.80;;;29.20;50.70;;;;;;5066321;28;20608;-47
2022/08/16 11:13:32;;;;;;;6.60;5.50;;;29.20;51.80;;;;;;5064058;28;20021;-47
2022/08/16 11:15:59;;;;;;;7.10;5.20;;;29.10;50.70;;;;;;5066207;28;20036;-48
2022/08/16 11:18:27;;;;;;;7.32;6.10;;;29.30;51.40;;;;;;5056354;28;20024;-47
2022/08/16 11:20:53;;;;;;;7.53;4.97;;;29.30;52.30;;;;;;5055506;28;20039;-47
2022/08/16 11:23:19;;;;;;;10.18;5.93;;;29.30;52.40;;;;;;5061991;28;20032;-47
2022/08/16 11:25:44;;;;;;;6.75;5.50;;;29.20;51.30;;;;;;5067436;28;20465;-48
2022/08/16 11:28:13;;;;;;;7.55;5.57;;;29.10;51.60;;;;;;5067065;28;20358;-47
2022/08/16 11:30:40;;;;;;;9.43;6.13;;;29.10;53.40;;;;;;5065801;28;20094;-48
2022/08/16 11:33:08;;;;;;;9.13;6.20;;;29.10;51.20;;;;;;5066464;28;20032;-47
2022/08/16 11:35:35;;;;;;;5.95;5.35;;;29.20;52.00;;;;;;5061128;28;20102;-49
2022/08/16 11:38:09;;;;;;;9.52;5.45;;;29.30;50.50;;;;;;5066734;28;20036;-47
2022/08/16 11:40:57;;;;;;;7.97;5.50;;;29.30;50.40;;;;;;5066434;28;20059;-47
2022/08/16 11:43:31;;;;;;;7.60;5.53;;;29.40;51.60;;;;;;5057083;28;20024;-49
2022/08/16 11:46:01;;;;;;;6.05;5.00;;;29.30;52.90;;;;;;5065591;28;20044;-47
2022/08/16 11:48:32;;;;;;;10.23;5.70;;;29.10;52.00;;;;;;5065925;28;20020;-48
2022/08/16 11:50:59;;;;;;;8.13;5.50;;;29.20;51.50;;;;;;5061527;28;20461;-48
2022/08/16 11:53:28;;;;;;;9.10;6.43;;;29.30;51.40;;;;;;5061158;28;20079;-47
2022/08/16 11:55:55;;;;;;;9.13;6.05;;;29.30;50.30;;;;;;5039060;28;20490;-47
2022/08/16 11:58:23;;;;;;;6.13;5.53;;;29.20;49.00;;;;;;5062419;28;20039;-47
2022/08/16 12:00:49;;;;;;;6.95;5.85;;;29.00;49.50;;;;;;5063891;28;20024;-48
2022/08/16 12:03:15;;;;;;;8.48;6.13;;;29.20;50.80;;;;;;5051074;28;20339;-47
2022/08/16 12:05:43;;;;;;;11.25;6.80;;;29.20;51.20;;;;;;5048828;28;20675;-47
2022/08/16 12:08:09;;;;;;;8.35;6.78;;;29.30;50.30;;;;;;5059827;28;20029;-47
2022/08/16 12:10:38;;;;;;;7.93;5.55;;;29.20;50.30;;;;;;5068774;28;20036;-48
2022/08/16 12:13:06;;;;;;;7.60;6.07;;;29.30;48.80;;;;;;5067184;28;20028;-47
2022/08/16 12:15:32;;;;;;;7.72;6.20;;;29.40;48.60;;;;;;5041347;28;20067;-50
2022/08/16 12:17:58;;;;;;;11.00;6.43;;;29.50;49.40;;;;;;5052563;28;20025;-47
2022/08/16 12:20:29;;;;;;;7.45;5.55;;;29.40;48.10;;;;;;5058382;28;20071;-47
2022/08/16 12:22:55;;;;;;;7.95;5.75;;;29.30;48.40;;;;;;5059825;28;20032;-47
2022/08/16 12:25:23;;;;;;;5.95;5.35;;;29.30;48.20;;;;;;5046829;28;20373;-47
2022/08/16 12:27:49;;;;;;;9.95;5.95;;;29.30;49.00;;;;;;5036479;28;20041;-49
2022/08/16 12:30:21;;;;;;;6.22;5.63;;;29.30;49.60;;;;;;5063734;28;20048;-50
2022/08/16 12:32:49;;;;;;;8.38;6.05;;;29.30;48.70;;;;;;5060141;28;20021;-49
2022/08/16 12:35:17;;;;;;;8.43;5.78;;;29.40;48.80;;;;;;5060284;28;20441;-50
2022/08/16 12:37:44;;;;;;;8.55;5.65;;;29.40;53.50;;;;;;5065998;28;20170;-52